EW9592 Weather Reports


Display with metric or nautical units.
time (UTC)temp
F
wind
direction
speed
MPH
gust
MPH
rain 1hr
in
rain 24hr
in
rain mn
in
humidity
%
barometer
mb
20220703171533 75 17 0.0 0.0 0.00 0.80 0.80 93 1020.0
20220703170043 75 18 0.0 1.0 0.00 0.80 0.80 93 1020.1
20220703164530 74 18 0.0 1.0 0.00 0.80 0.80 95 1020.1
20220703163029 73 129 0.0 1.0 0.00 0.80 0.80 96 1020.0
20220703161529 71 90 0.0 1.0 0.00 0.80 0.80 98 1020.2
20220703160029 71 105 0.0 0.0 0.00 0.80 0.80 97 1020.3
20220703154528 70 104 0.0 0.0 0.00 0.80 0.80 97 1020.3
20220703153043 70 104 0.0 0.0 0.00 0.80 0.80 97 1020.3
20220703151527 69 104 0.0 0.0 0.00 0.80 0.80 98 1020.2
20220703150026 69 104 0.0 0.0 0.00 0.80 0.80 98 1020.0
20220703144526 68 105 0.0 1.0 0.00 0.80 0.80 98 1020.0
20220703143026 68 103 0.0 0.0 0.00 0.80 0.80 98 1020.1
20220703141524 68 103 0.0 0.0 0.00 0.80 0.80 98 1020.3
20220703140022 67 103 0.0 1.0 0.00 0.80 0.80 98 1020.0
20220703134521 67 212 0.0 0.0 0.01 0.80 0.80 98 1019.9
20220703133021 67 134 0.0 0.0 0.02 0.80 0.80 98 1019.8
20220703131522 67 134 0.0 1.0 0.02 0.80 0.80 98 1019.7
20220703130015 66 134 0.0 0.0 0.02 0.80 0.80 98 1019.7
20220703124514 66 134 0.0 0.0 0.01 0.79 0.79 98 1019.5
20220703123012 66 134 0.0 0.0 0.00 0.78 0.78 98 1019.8
20220703121510 65 134 0.0 0.0 0.00 0.78 0.78 98 1019.7
20220703120012 66 134 0.0 0.0 0.00 0.78 0.78 98 1019.3
20220703114506 65 134 0.0 0.0 0.00 0.78 0.78 98 1019.0
20220703113005 65 134 0.0 0.0 0.00 0.78 0.78 98 1019.0
20220703111506 65 134 0.0 0.0 0.00 0.78 0.78 97 1018.6
20220703110100 65 134 0.0 0.0 0.00 0.78 0.78 97 1018.4
20220703104600 65 134 0.0 0.0 0.00 0.78 0.78 97 1018.2
20220703103059 65 134 0.0 0.0 0.00 0.78 0.78 97 1017.9
20220703101600 66 134 0.0 0.0 0.00 0.78 0.78 97 1017.6
20220703100102 66 264 0.0 0.0 0.00 0.78 0.78 97 1017.8
20220703094558 66 264 0.0 0.0 0.00 0.78 0.78 97 1017.7
20220703093056 66 264 0.0 0.0 0.00 0.78 0.78 97 1017.5
20220703091602 66 266 0.0 0.0 0.00 0.78 0.78 97 1017.3
20220703090056 66 267 0.0 0.0 0.00 0.78 0.78 97 1017.5
20220703084554 66 267 0.0 0.0 0.01 0.78 0.78 97 1017.4
20220703083056 66 267 0.0 0.0 0.05 0.78 0.78 97 1017.6
20220703081602 66 267 0.0 0.0 0.07 0.78 0.78 97 1017.7
20220703080051 66 267 0.0 0.0 0.08 0.78 0.78 97 1017.8
20220703074551 66 266 0.0 2.0 0.47 0.77 0.77 97 1017.9
20220703073050 66 233 0.0 1.0 0.68 0.73 0.73 96 1017.9
20220703071549 67 136 0.0 1.0 0.69 0.71 0.71 96 1017.4
20220703070048 67 208 0.0 1.0 0.68 0.69 0.69 95 1017.6
20220703064549 67 285 0.0 0.0 0.28 0.28 0.28 95 1018.3
20220703063042 68 281 0.0 0.0 0.04 0.04 0.04 94 1017.9
20220703061537 70 287 0.0 1.0 0.02 0.02 0.02 91 1017.5
20220703060038 73 287 0.0 1.0 0.01 0.01 0.01 85 1017.5
20220703054529 75 268 0.0 1.0 0.00 0.00 0.00 82 1017.1
20220703053030 75 311 0.0 0.0 0.00 0.00 0.00 83 1016.7
20220703051525 75 310 0.0 0.0 0.00 0.00 0.00 85 1016.7
20220703050034 75 311 0.0 0.0 0.00 0.00 0.00 83 1016.7
20220703044524 75 309 0.0 0.0 0.00 0.00 0.00 84 1016.8
20220703043022 75 310 0.0 0.0 0.00 0.00 0.00 84 1016.8
20220703041525 76 310 0.0 0.0 0.00 0.00 0.00 87 1016.6
20220703040023 76 311 0.0 0.0 0.00 0.00 0.00 87 1016.6
20220703034516 76 309 0.0 0.0 0.00 0.00 0.00 87 1016.7
20220703033015 76 308 0.0 0.0 0.00 0.00 0.00 87 1016.6
20220703031519 76 302 0.0 0.0 0.00 0.00 0.00 86 1016.6
20220703030013 76 301 0.0 0.0 0.00 0.00 0.00 87 1016.4
20220703024513 76 301 0.0 0.0 0.00 0.00 0.00 88 1016.3
20220703023012 76 301 0.0 0.0 0.00 0.00 0.00 88 1016.3
20220703021512 77 301 0.0 0.0 0.00 0.00 0.00 88 1016.1
20220703020010 77 301 0.0 0.0 0.00 0.00 0.00 88 1015.8
20220703014509 77 307 0.0 0.0 0.00 0.00 0.00 88 1015.7
20220703013011 78 307 0.0 0.0 0.00 0.00 0.00 87 1015.4
20220703011508 78 302 0.0 0.0 0.00 0.00 0.00 87 1015.3
20220703010015 78 302 0.0 0.0 0.00 0.00 0.00 87 1015.2
20220703004508 79 302 0.0 0.0 0.00 0.00 0.00 86 1015.3
20220703003007 79 302 0.0 0.0 0.00 0.00 0.00 85 1015.2
20220703001506 80 304 0.0 0.0 0.00 0.00 0.00 84 1015.0
20220703000005 80 304 0.0 0.0 0.00 0.00 0.00 83 1014.8
20220702234509 80 301 0.0 0.0 0.00 0.00 0.00 82 1014.9
20220702233004 81 301 0.0 0.0 0.00 0.00 0.00 80 1014.8
20220702231504 82 298 0.0 0.0 0.00 0.00 0.00 80 1014.8
20220702230003 82 298 0.0 0.0 0.00 0.00 0.00 79 1014.9
20220702224508 82 305 0.0 0.0 0.00 0.00 0.00 76 1015.3
20220702223004 82 305 0.0 1.0 0.00 0.00 0.00 74 1015.2
20220702221501 83 308 0.0 0.0 0.00 0.00 0.00 75 1014.9
20220702220002 83 309 0.0 0.0 0.00 0.00 0.00 76 1015.0
20220702214501 83 309 0.0 0.0 0.00 0.00 0.00 74 1015.1
20220702213004 84 310 0.0 0.0 0.00 0.00 0.00 72 1015.2
20220702211600 84 314 0.0 1.0 0.00 0.00 0.00 72 1015.1
20220702210100 85 336 0.0 2.0 0.00 0.00 0.00 67 1015.2
20220702204603 85 340 0.0 1.0 0.00 0.00 0.00 69 1015.1
20220702203058 85 1 0.0 1.0 0.00 0.00 0.00 68 1014.9
20220702201557 85 33 0.0 1.0 0.00 0.00 0.00 66 1015.1
20220702200057 86 259 0.0 1.0 0.00 0.00 0.00 67 1015.1
20220702194558 86 338 0.0 2.0 0.00 0.00 0.00 65 1015.2
20220702193056 86 215 0.0 1.0 0.00 0.00 0.00 69 1015.2
20220702191656 86 348 0.0 1.0 0.00 0.00 0.00 68 1015.5
20220702190103 86 242 0.0 1.0 0.00 0.00 0.00 65 1015.6
20220702184553 86 235 0.0 2.0 0.00 0.00 0.00 64 1015.7
20220702183054 86 8 0.0 1.0 0.00 0.00 0.00 65 1015.8
20220702181552 85 342 0.0 3.0 0.00 0.00 0.00 63 1016.0
20220702180051 86 8 0.0 1.0 0.00 0.00 0.00 63 1016.2
20220702174550 85 99 0.0 1.0 0.00 0.00 0.00 63 1016.2
20220702173050 85 4 0.0 2.0 0.00 0.00 0.00 66 1016.2